Hauptseite
METAR-TAF:

METAR-TAF

Flughäfen :

Büchel, Deutschland

Fliegerhorst Büchel

Breite: 50-10N, Länge: 007-04E, Höhe: 478 m

Beobachtung

Neuester Wetterbericht von vor 32 Minuten, um 13:20 UTC
Wind 20 kt aus Ost/Nordost
Temperatur 0°C
Luftfeuchtigkeit 43%
Luftdruck 1019 hPa
Sichtweite 10 km oder mehr

METAR: ETSB 241320Z AUTO 06020KT 9999 // ////// 00/M11 Q1019 ///

Zeit: 14:52 (13:52 UTC)

Prognose

Neuester Wetterbericht von vor 26 Stunden und 52 Minuten, um 11:00 UTC
Gültige Prognose vom 23 um 09 UTC bis 23 um 18 UTC
Wind 15 kt aus Ost/Nordost, Böen bis zu 30 kt
Sichtweite: 1100 m
Himmel klar

TAF: ETSB 231100Z 2309/2318 06015G30KT 9999 NSW SKC CANCEL 1100 BY ETGL

Wetterbeobachtungen und Prognosen von mehr als 4000 Flughäfen (METAR und TAF Bericht).

Die verfügbaren Stationen werden durch gelbe und rote Markierungen auf der Karte dargestellt.

Führen Sie die Maus auf sie, um den Namen der Station zu sehen.

Darauf klicken, um die Beobachtung von Wetterbeobachtungen und Prognosen zu sehen.

Um die Karte zu ändern : klicken Sie auf den grünen Tasten mit einem schwarzen Kreuz Zum Vergrößern, auf den grünen Button mit einem Gedankenstrich zu verkleinern, oder auf die grünen Pfeile für benachbarte Karten.


METAR-TAF: